Time;durP1;ratioP1;P1;durP2;ratioP2;P2;SDS_P1;SDS_P2;PMS_P1;PMS_P2;Temp;Humidity;BMP_temperature;BMP_pressure;BME280_temperature;BME280_humidity;BME280_pressure;Samples;Min_cycle;Max_cycle;Signal;HPM_P1;HPM_P2
2023/05/26 00:00:43;;;;;;;23.17;4.20;;;14.20;81.80;;;;;;5076149;28;20054;-77
2023/05/26 00:03:09;;;;;;;21.17;4.35;;;14.30;82.00;;;;;;5059362;28;20024;-77
2023/05/26 00:05:39;;;;;;;16.92;3.42;;;14.40;82.00;;;;;;5093941;28;20388;-77
2023/05/26 00:08:06;;;;;;;19.98;3.30;;;14.50;81.60;;;;;;5076634;28;20032;-77
2023/05/26 00:10:32;;;;;;;16.52;3.28;;;14.50;81.60;;;;;;5094226;28;20028;-77
2023/05/26 00:12:58;;;;;;;21.08;4.03;;;14.60;81.00;;;;;;5075208;28;20056;-77
2023/05/26 00:15:23;;;;;;;19.35;4.03;;;14.70;80.80;;;;;;5059068;28;20077;-77
2023/05/26 00:17:50;;;;;;;20.70;4.65;;;14.60;80.50;;;;;;5075637;28;20024;-76
2023/05/26 00:20:16;;;;;;;20.40;4.28;;;14.60;80.40;;;;;;5093950;28;20047;-77
2023/05/26 00:22:42;;;;;;;19.33;3.75;;;14.50;80.40;;;;;;5093592;28;20059;-77
2023/05/26 00:25:08;;;;;;;20.58;4.07;;;14.50;81.00;;;;;;5075113;28;20064;-77
2023/05/26 00:27:34;;;;;;;19.02;4.95;;;14.50;80.40;;;;;;5093713;28;20536;-77
2023/05/26 00:29:59;;;;;;;23.80;4.72;;;14.40;80.70;;;;;;5093979;28;20067;-77
2023/05/26 00:32:25;;;;;;;26.98;4.68;;;14.30;81.00;;;;;;5093912;28;20024;-77
2023/05/26 00:34:51;;;;;;;17.40;3.72;;;14.10;81.20;;;;;;5075984;28;20036;-77
2023/05/26 00:37:17;;;;;;;24.42;4.45;;;14.00;81.70;;;;;;5076210;28;20464;-76
2023/05/26 00:39:43;;;;;;;24.38;4.60;;;14.00;81.80;;;;;;5058611;28;20059;-76
2023/05/26 00:42:09;;;;;;;20.33;4.03;;;14.10;81.90;;;;;;5075337;28;20115;-77
2023/05/26 00:44:35;;;;;;;22.27;4.22;;;14.10;81.70;;;;;;5093326;28;20077;-76
2023/05/26 00:47:00;;;;;;;17.80;3.60;;;13.90;81.90;;;;;;5093243;28;20042;-77
2023/05/26 00:49:26;;;;;;;17.10;3.45;;;13.90;82.20;;;;;;5075241;28;20102;-77
2023/05/26 00:51:52;;;;;;;21.05;4.40;;;14.00;82.50;;;;;;5075318;28;20487;-77
2023/05/26 00:54:20;;;;;;;28.02;4.43;;;14.10;81.60;;;;;;5075587;28;20357;-76
2023/05/26 00:56:46;;;;;;;21.15;4.40;;;14.00;82.10;;;;;;5075240;28;20461;-77
2023/05/26 00:59:13;;;;;;;22.52;4.50;;;14.00;81.90;;;;;;5075404;28;20039;-77
2023/05/26 01:01:39;;;;;;;19.85;4.03;;;14.00;81.90;;;;;;5093287;28;20028;-76
2023/05/26 01:04:06;;;;;;;21.45;4.47;;;14.00;81.50;;;;;;5075286;28;20036;-77
2023/05/26 01:06:31;;;;;;;27.58;5.15;;;13.80;82.00;;;;;;5074993;28;20035;-77
2023/05/26 01:08:58;;;;;;;22.00;4.90;;;13.70;82.20;;;;;;5058713;28;20036;-77
2023/05/26 01:11:39;;;;;;;30.77;5.20;;;13.70;82.70;;;;;;5058770;28;20063;-77
2023/05/26 01:14:33;;;;;;;20.85;4.43;;;13.60;82.50;;;;;;5075284;28;20372;-76
2023/05/26 01:17:26;;;;;;;15.40;3.33;;;13.80;82.80;;;;;;5093151;28;20024;-77
2023/05/26 01:20:19;;;;;;;24.48;4.18;;;13.80;83.00;;;;;;5086126;28;20050;-77
2023/05/26 01:22:50;;;;;;;24.77;4.50;;;13.70;82.20;;;;;;5091912;28;20024;-76
2023/05/26 01:25:56;;;;;;;19.33;4.35;;;13.60;82.80;;;;;;5074480;28;20031;-76
2023/05/26 01:28:26;;;;;;;26.55;5.20;;;13.50;82.60;;;;;;5013833;28;20428;-76
2023/05/26 01:30:52;;;;;;;22.35;4.38;;;13.50;83.10;;;;;;5064706;28;20127;-77
2023/05/26 01:33:18;;;;;;;18.23;3.85;;;13.50;83.00;;;;;;5074597;28;20028;-77
2023/05/26 01:35:44;;;;;;;23.02;4.32;;;13.50;83.50;;;;;;5058581;28;20032;-76
2023/05/26 01:38:11;;;;;;;23.08;4.18;;;13.40;82.90;;;;;;5077282;28;20031;-76
2023/05/26 01:40:39;;;;;;;20.25;4.00;;;13.30;83.20;;;;;;5078550;28;20120;-76
2023/05/26 01:43:18;;;;;;;19.92;3.58;;;13.30;83.60;;;;;;5078110;28;20043;-77
2023/05/26 01:45:50;;;;;;;21.58;3.42;;;13.30;83.90;;;;;;5096319;28;20111;-76
2023/05/26 01:48:18;;;;;;;16.92;3.70;;;13.50;83.80;;;;;;5078478;28;20028;-76
2023/05/26 01:50:56;;;;;;;30.25;5.20;;;13.50;83.50;;;;;;5061891;28;20036;-76
2023/05/26 01:53:26;;;;;;;25.95;4.45;;;13.60;83.20;;;;;;5096405;28;20039;-77
2023/05/26 01:55:56;;;;;;;20.95;3.55;;;13.50;83.50;;;;;;5078498;28;20035;-77
2023/05/26 01:58:24;;;;;;;19.58;4.13;;;13.50;83.50;;;;;;5078121;28;20035;-77
2023/05/26 02:00:52;;;;;;;19.17;4.00;;;13.60;83.20;;;;;;5096150;28;20024;-76
2023/05/26 02:03:18;;;;;;;22.67;3.83;;;13.50;82.80;;;;;;5077513;28;20039;-76
2023/05/26 02:05:44;;;;;;;18.58;3.83;;;13.50;83.60;;;;;;5077704;28;20086;-77
2023/05/26 02:08:10;;;;;;;15.20;3.03;;;13.60;84.10;;;;;;5095702;28;20453;-77
2023/05/26 02:10:37;;;;;;;14.48;2.92;;;13.70;84.00;;;;;;5095883;28;20028;-77
2023/05/26 02:13:02;;;;;;;19.30;3.63;;;13.90;84.00;;;;;;5077534;28;20507;-77
2023/05/26 02:15:29;;;;;;;12.10;2.67;;;14.00;83.50;;;;;;5077537;28;20161;-77
2023/05/26 02:17:57;;;;;;;19.45;3.33;;;14.10;83.60;;;;;;5077869;28;20490;-76
2023/05/26 02:20:23;;;;;;;25.70;4.18;;;14.20;83.30;;;;;;5095611;28;20115;-76
2023/05/26 02:22:49;;;;;;;19.77;3.33;;;14.20;82.30;;;;;;5095289;28;20123;-77
2023/05/26 02:25:15;;;;;;;19.50;3.58;;;14.20;82.30;;;;;;5095277;28;20063;-76
2023/05/26 02:27:40;;;;;;;18.48;3.97;;;14.20;83.00;;;;;;5095294;28;20028;-76
2023/05/26 02:30:07;;;;;;;16.67;3.35;;;14.30;82.20;;;;;;5077858;28;20056;-76
2023/05/26 02:32:34;;;;;;;14.55;3.72;;;14.30;82.80;;;;;;5060965;28;20024;-76
2023/05/26 02:35:00;;;;;;;13.40;2.72;;;14.40;83.40;;;;;;5095453;28;20452;-77
2023/05/26 02:37:28;;;;;;;15.68;3.25;;;14.40;82.50;;;;;;5077040;28;20058;-77
2023/05/26 02:39:54;;;;;;;19.85;4.13;;;14.50;82.90;;;;;;5077118;28;20122;-77
2023/05/26 02:42:20;;;;;;;14.10;3.13;;;14.50;81.80;;;;;;5095313;28;20455;-77
2023/05/26 02:44:46;;;;;;;17.77;3.35;;;14.50;82.20;;;;;;5060172;28;20028;-77
2023/05/26 02:47:11;;;;;;;19.90;3.65;;;14.50;82.10;;;;;;5077469;28;20098;-77
2023/05/26 02:49:37;;;;;;;21.17;3.80;;;14.60;82.00;;;;;;5094969;28;20036;-76
2023/05/26 02:52:03;;;;;;;15.18;3.03;;;14.60;81.70;;;;;;5077118;28;20493;-77
2023/05/26 02:54:29;;;;;;;16.58;3.20;;;14.60;81.60;;;;;;5076784;28;20035;-77
2023/05/26 02:56:54;;;;;;;15.43;3.30;;;14.60;81.20;;;;;;5059774;28;20087;-77
2023/05/26 02:59:20;;;;;;;16.02;3.58;;;14.60;81.10;;;;;;5095198;28;20127;-77
2023/05/26 03:01:46;;;;;;;17.48;3.65;;;14.60;81.20;;;;;;5095078;28;20029;-77
2023/05/26 03:04:11;;;;;;;18.77;3.83;;;14.60;80.90;;;;;;5076387;28;20429;-77
2023/05/26 03:06:37;;;;;;;16.58;2.80;;;14.60;80.90;;;;;;5076715;28;20047;-77
2023/05/26 03:09:03;;;;;;;27.00;3.70;;;14.60;81.30;;;;;;5076573;28;20131;-76
2023/05/26 03:11:29;;;;;;;14.43;2.83;;;14.60;81.00;;;;;;5076772;28;20068;-77
2023/05/26 03:13:54;;;;;;;12.43;2.80;;;14.70;81.50;;;;;;5060475;28;20028;-79
2023/05/26 03:16:20;;;;;;;11.18;2.22;;;14.70;81.40;;;;;;5076736;28;20067;-77
2023/05/26 03:18:46;;;;;;;14.95;2.85;;;14.70;81.90;;;;;;5094616;28;20067;-77
2023/05/26 03:21:11;;;;;;;17.05;2.83;;;14.70;82.60;;;;;;5094401;28;20028;-77
2023/05/26 03:23:37;;;;;;;13.05;2.30;;;14.80;81.90;;;;;;5043048;28;20147;-77
2023/05/26 03:26:03;;;;;;;18.75;4.13;;;14.80;81.70;;;;;;5076600;28;20482;-77
2023/05/26 03:28:28;;;;;;;11.90;2.28;;;14.80;81.10;;;;;;5094474;28;20064;-77
2023/05/26 03:30:54;;;;;;;15.40;3.22;;;14.80;81.40;;;;;;5076597;28;20070;-77
2023/05/26 03:33:20;;;;;;;9.98;2.72;;;14.80;81.50;;;;;;5076349;28;20123;-77
2023/05/26 03:35:45;;;;;;;15.10;2.88;;;14.90;81.30;;;;;;5076882;28;20029;-76
2023/05/26 03:38:11;;;;;;;14.18;2.97;;;14.90;81.00;;;;;;5076342;28;20435;-77
2023/05/26 03:40:36;;;;;;;16.40;3.08;;;14.90;81.10;;;;;;5059805;28;20483;-77
2023/05/26 03:43:02;;;;;;;16.08;3.55;;;14.80;80.90;;;;;;5075745;28;20123;-77
2023/05/26 03:45:28;;;;;;;16.27;3.40;;;14.80;80.70;;;;;;5059142;28;20123;-77
2023/05/26 03:47:54;;;;;;;15.73;3.45;;;14.80;80.50;;;;;;5094019;28;20033;-77
2023/05/26 03:50:19;;;;;;;20.52;4.20;;;14.80;80.80;;;;;;5059151;28;20143;-77
2023/05/26 03:52:45;;;;;;;18.67;3.40;;;14.80;79.70;;;;;;5075812;28;20032;-77
2023/05/26 03:55:11;;;;;;;18.65;4.05;;;14.60;80.10;;;;;;5059254;28;20035;-77
2023/05/26 03:57:38;;;;;;;19.48;3.30;;;14.60;80.00;;;;;;5076121;28;20512;-77
2023/05/26 04:00:06;;;;;;;21.85;4.05;;;14.60;80.70;;;;;;5091953;28;20020;-77
2023/05/26 04:02:32;;;;;;;17.50;3.10;;;14.60;80.10;;;;;;5093690;28;20024;-77
2023/05/26 04:04:57;;;;;;;10.63;2.67;;;14.50;80.50;;;;;;5058881;28;20544;-78
2023/05/26 04:07:23;;;;;;;10.82;2.60;;;14.60;81.00;;;;;;5075535;28;20032;-77
2023/05/26 04:09:48;;;;;;;11.10;2.53;;;14.50;80.90;;;;;;5093612;28;20086;-77
2023/05/26 04:12:14;;;;;;;12.07;2.53;;;14.60;81.50;;;;;;5081710;28;20055;-77
2023/05/26 04:14:40;;;;;;;10.95;2.80;;;14.60;81.70;;;;;;5038763;28;20079;-77
2023/05/26 04:17:06;;;;;;;11.52;2.75;;;14.70;81.50;;;;;;5055846;28;20095;-77
2023/05/26 04:19:31;;;;;;;13.32;3.10;;;14.80;81.30;;;;;;5038542;28;20028;-77
2023/05/26 04:21:57;;;;;;;17.17;3.63;;;14.80;81.40;;;;;;5054747;28;20037;-78
2023/05/26 04:24:23;;;;;;;14.43;3.45;;;14.70;81.00;;;;;;5055009;28;20025;-77
2023/05/26 04:26:49;;;;;;;13.85;3.20;;;14.80;81.10;;;;;;5073162;28;20079;-77
2023/05/26 04:29:15;;;;;;;17.00;3.40;;;14.80;81.20;;;;;;5055676;28;20024;-77
2023/05/26 04:31:42;;;;;;;13.07;2.75;;;14.80;80.80;;;;;;5073521;28;20180;-78
2023/05/26 04:34:08;;;;;;;18.50;3.42;;;14.80;80.60;;;;;;5039142;28;20507;-77
2023/05/26 04:36:38;;;;;;;17.70;2.90;;;14.80;80.40;;;;;;5074025;28;20025;-78
2023/05/26 04:39:04;;;;;;;19.95;3.10;;;14.80;80.30;;;;;;5039653;28;20037;-78
2023/05/26 04:41:29;;;;;;;18.70;3.50;;;14.60;79.30;;;;;;5039248;28;20033;-77
2023/05/26 04:43:55;;;;;;;21.92;4.20;;;14.40;79.60;;;;;;5039445;28;20040;-77
2023/05/26 04:46:21;;;;;;;18.58;4.10;;;14.40;80.60;;;;;;5073353;28;20472;-77
2023/05/26 04:48:47;;;;;;;20.17;3.58;;;14.20;80.20;;;;;;5055314;28;20491;-77
2023/05/26 04:51:13;;;;;;;20.83;4.43;;;14.10;80.70;;;;;;5073221;28;20115;-76
2023/05/26 04:53:38;;;;;;;24.05;3.85;;;14.00;81.20;;;;;;5073076;28;20071;-77
2023/05/26 04:56:05;;;;;;;28.60;4.25;;;13.90;81.40;;;;;;5073394;28;20103;-76
2023/05/26 04:58:32;;;;;;;25.60;4.70;;;13.80;81.40;;;;;;5038841;28;20123;-77
2023/05/26 05:00:58;;;;;;;27.88;4.40;;;13.60;81.50;;;;;;5055779;28;20039;-76
2023/05/26 05:03:24;;;;;;;18.38;3.75;;;13.50;82.30;;;;;;5055295;28;20032;-77
2023/05/26 05:05:50;;;;;;;28.40;4.53;;;13.40;82.50;;;;;;5055300;28;20032;-77
2023/05/26 05:08:16;;;;;;;28.83;5.07;;;13.30;82.80;;;;;;5038745;28;20033;-77
2023/05/26 05:10:41;;;;;;;25.60;5.10;;;13.10;83.40;;;;;;5038786;28;20180;-77
2023/05/26 05:13:07;;;;;;;28.75;4.68;;;12.90;84.10;;;;;;5076697;28;20056;-77
2023/05/26 05:15:33;;;;;;;25.38;4.70;;;12.80;84.90;;;;;;5079115;28;20032;-77
2023/05/26 05:17:59;;;;;;;37.85;4.88;;;12.60;85.20;;;;;;5079188;28;20028;-77
2023/05/26 05:20:25;;;;;;;34.88;5.30;;;12.60;85.80;;;;;;5080099;28;20114;-76
2023/05/26 05:22:50;;;;;;;28.10;4.88;;;12.40;86.00;;;;;;5079637;28;20515;-77
2023/05/26 05:25:17;;;;;;;27.40;4.63;;;12.30;86.60;;;;;;5080615;28;20128;-76
2023/05/26 05:27:43;;;;;;;21.92;4.50;;;12.30;86.90;;;;;;5079813;28;20387;-76
2023/05/26 05:30:09;;;;;;;28.70;5.10;;;12.30;86.90;;;;;;5063114;28;20032;-76
2023/05/26 05:32:35;;;;;;;27.00;4.50;;;12.30;87.00;;;;;;5079489;28;20067;-77
2023/05/26 05:35:00;;;;;;;26.20;4.82;;;12.30;87.50;;;;;;5097357;28;20064;-75
2023/05/26 05:37:26;;;;;;;29.33;4.95;;;12.30;87.50;;;;;;5078966;28;20452;-77
2023/05/26 05:39:52;;;;;;;26.70;4.43;;;12.20;87.40;;;;;;5079400;28;20063;-77
2023/05/26 05:42:17;;;;;;;29.13;4.82;;;12.20;88.70;;;;;;5078951;28;20459;-77
2023/05/26 05:44:43;;;;;;;24.20;4.20;;;12.10;88.00;;;;;;5078908;28;20139;-76
2023/05/26 05:47:09;;;;;;;23.08;4.55;;;12.10;88.40;;;;;;5078574;28;20063;-77
2023/05/26 05:49:34;;;;;;;22.35;4.30;;;12.30;88.50;;;;;;5096451;28;20439;-77
2023/05/26 05:52:00;;;;;;;21.60;5.47;;;12.60;88.10;;;;;;5096998;28;20448;-77
2023/05/26 05:54:25;;;;;;;29.70;4.60;;;12.60;87.10;;;;;;5078528;28;20028;-78
2023/05/26 05:56:51;;;;;;;31.25;4.97;;;12.50;86.90;;;;;;5061311;28;20025;-79
2023/05/26 05:59:17;;;;;;;30.70;5.18;;;12.60;87.10;;;;;;5078270;28;20066;-76
2023/05/26 06:01:45;;;;;;;31.45;4.97;;;12.50;87.40;;;;;;5078606;28;20039;-76
2023/05/26 06:04:11;;;;;;;33.90;5.50;;;12.40;87.50;;;;;;5078864;28;20032;-75
2023/05/26 06:06:36;;;;;;;33.67;5.22;;;12.20;87.90;;;;;;5096356;28;20032;-76
2023/05/26 06:09:02;;;;;;;31.23;5.57;;;12.10;88.20;;;;;;5078057;28;20031;-77
2023/05/26 06:11:28;;;;;;;32.95;5.05;;;12.20;88.40;;;;;;5090533;28;20056;-77
2023/05/26 06:13:53;;;;;;;27.13;4.22;;;12.30;88.30;;;;;;5076029;28;20079;-76
2023/05/26 06:16:20;;;;;;;26.88;4.45;;;12.30;88.40;;;;;;5041541;28;20484;-75
2023/05/26 06:18:45;;;;;;;28.83;5.28;;;12.30;88.40;;;;;;5057989;28;20048;-75
2023/05/26 06:21:11;;;;;;;24.70;4.95;;;12.40;88.40;;;;;;5076166;28;20406;-80
2023/05/26 06:23:37;;;;;;;33.22;5.93;;;12.40;88.40;;;;;;5075030;28;20060;-77
2023/05/26 06:26:02;;;;;;;30.13;4.53;;;12.50;88.60;;;;;;5076035;28;20075;-78
2023/05/26 06:28:28;;;;;;;30.13;4.93;;;12.40;88.00;;;;;;5041243;28;20036;-78
2023/05/26 06:30:53;;;;;;;29.65;4.85;;;12.40;88.60;;;;;;5057640;28;20036;-76
2023/05/26 06:33:19;;;;;;;27.38;4.50;;;12.50;88.70;;;;;;5057874;28;20079;-77
2023/05/26 06:35:45;;;;;;;33.42;4.40;;;12.60;88.60;;;;;;5057695;28;20444;-77
2023/05/26 06:38:10;;;;;;;30.23;5.28;;;12.80;87.90;;;;;;5057553;28;20033;-78
2023/05/26 06:40:36;;;;;;;29.83;5.07;;;12.80;87.30;;;;;;5040890;28;20025;-77
2023/05/26 06:43:02;;;;;;;23.10;4.07;;;12.90;87.00;;;;;;5057630;28;20381;-76
2023/05/26 06:45:27;;;;;;;32.67;6.18;;;13.00;87.00;;;;;;5057638;28;20039;-78
2023/05/26 06:47:53;;;;;;;31.25;5.30;;;13.10;85.90;;;;;;5057532;28;20072;-78
2023/05/26 06:50:19;;;;;;;22.70;4.22;;;13.00;85.90;;;;;;5040513;28;20024;-77
2023/05/26 06:52:44;;;;;;;25.92;5.03;;;13.00;86.30;;;;;;5074694;28;20025;-77
2023/05/26 06:55:10;;;;;;;25.67;4.45;;;13.10;85.90;;;;;;5040606;28;20029;-78
2023/05/26 06:57:36;;;;;;;27.98;4.72;;;13.20;86.10;;;;;;5057546;28;20025;-77
2023/05/26 07:00:02;;;;;;;25.63;4.10;;;13.30;85.10;;;;;;5075140;28;20032;-77
2023/05/26 07:02:28;;;;;;;21.55;3.78;;;13.20;84.40;;;;;;5057187;28;20123;-78
2023/05/26 07:04:54;;;;;;;41.53;5.70;;;13.10;85.00;;;;;;5075025;28;20119;-77
2023/05/26 07:07:19;;;;;;;27.73;4.57;;;13.10;85.00;;;;;;5040539;28;20036;-77
2023/05/26 07:09:45;;;;;;;31.00;4.25;;;13.10;85.60;;;;;;5075492;28;20154;-76
2023/05/26 07:12:11;;;;;;;29.52;4.53;;;13.10;85.40;;;;;;5068007;28;20056;-77
2023/05/26 07:14:37;;;;;;;31.63;4.88;;;13.20;85.80;;;;;;5077023;28;20492;-76
2023/05/26 07:17:03;;;;;;;28.65;5.07;;;13.20;85.10;;;;;;5076977;28;20032;-76
2023/05/26 07:19:28;;;;;;;28.45;5.45;;;13.30;85.20;;;;;;5076569;28;20024;-75
2023/05/26 07:21:54;;;;;;;35.22;5.32;;;13.40;85.60;;;;;;5094891;28;20024;-76
2023/05/26 07:24:20;;;;;;;31.25;5.28;;;13.40;84.40;;;;;;5076601;28;20028;-76
2023/05/26 07:26:45;;;;;;;27.55;4.53;;;13.50;84.20;;;;;;5076614;28;20099;-76
2023/05/26 07:29:11;;;;;;;26.30;5.32;;;13.60;84.30;;;;;;5094857;28;20042;-75
2023/05/26 07:31:36;;;;;;;30.73;5.50;;;13.80;84.60;;;;;;5076330;28;20028;-76
2023/05/26 07:34:02;;;;;;;26.50;5.30;;;13.90;84.40;;;;;;5076047;28;20032;-76
2023/05/26 07:36:28;;;;;;;28.17;4.82;;;14.00;83.30;;;;;;5093929;28;20036;-76
2023/05/26 07:38:53;;;;;;;23.63;4.00;;;14.00;82.80;;;;;;5076555;28;20391;-75
2023/05/26 07:41:21;;;;;;;27.00;4.82;;;14.00;83.10;;;;;;5076279;28;20020;-74
2023/05/26 07:43:46;;;;;;;24.02;4.38;;;14.10;81.80;;;;;;5076943;28;20056;-75
2023/05/26 07:46:12;;;;;;;30.33;4.40;;;14.20;81.90;;;;;;5076175;28;20055;-75
2023/05/26 07:48:38;;;;;;;28.05;4.90;;;14.30;82.30;;;;;;5094073;28;20031;-74
2023/05/26 07:51:03;;;;;;;30.45;4.70;;;14.40;82.20;;;;;;5076700;28;20051;-74
2023/05/26 07:53:29;;;;;;;22.38;4.45;;;14.40;82.00;;;;;;5075898;28;20028;-76
2023/05/26 07:55:55;;;;;;;27.90;4.93;;;14.50;82.70;;;;;;5076404;28;20492;-75
2023/05/26 07:58:20;;;;;;;23.05;4.15;;;14.60;81.60;;;;;;5094359;28;20028;-76
2023/05/26 08:00:46;;;;;;;26.50;4.28;;;14.80;82.20;;;;;;5094289;28;20069;-75
2023/05/26 08:03:12;;;;;;;35.60;5.55;;;14.80;82.10;;;;;;5059607;28;20465;-75
2023/05/26 08:05:37;;;;;;;25.65;4.15;;;14.90;81.00;;;;;;5093799;28;20046;-77
2023/05/26 08:08:04;;;;;;;25.23;4.13;;;15.00;82.30;;;;;;5075756;28;20222;-76
2023/05/26 08:10:29;;;;;;;22.95;4.57;;;15.20;82.10;;;;;;5076167;28;20036;-75
2023/05/26 08:12:55;;;;;;;25.13;5.35;;;15.50;80.50;;;;;;5077460;28;20523;-76
2023/05/26 08:15:21;;;;;;;24.27;4.20;;;15.50;79.20;;;;;;5039426;28;20469;-76
2023/05/26 08:17:48;;;;;;;22.38;3.75;;;15.50;79.50;;;;;;5039653;28;20112;-75
2023/05/26 08:20:13;;;;;;;22.60;4.82;;;15.60;79.70;;;;;;5039492;28;20032;-76
2023/05/26 08:22:39;;;;;;;23.02;4.13;;;15.60;79.90;;;;;;5055648;28;20051;-76
2023/05/26 08:25:05;;;;;;;22.98;4.63;;;15.50;79.20;;;;;;5074047;28;20036;-78
2023/05/26 08:27:30;;;;;;;22.27;4.60;;;15.60;79.50;;;;;;5055454;28;20032;-77
2023/05/26 08:29:56;;;;;;;24.50;4.43;;;15.80;79.00;;;;;;5039066;28;20028;-78
2023/05/26 08:32:23;;;;;;;22.00;4.47;;;15.90;76.00;;;;;;5056069;28;20043;-77
2023/05/26 08:34:49;;;;;;;28.38;4.28;;;15.90;76.00;;;;;;5055487;28;20071;-76
2023/05/26 08:37:16;;;;;;;21.30;4.20;;;16.00;76.30;;;;;;5055706;28;20358;-76
2023/05/26 08:39:42;;;;;;;27.60;4.50;;;16.10;75.30;;;;;;5039534;28;20037;-77
2023/05/26 08:42:18;;;;;;;21.20;4.53;;;16.10;74.20;;;;;;5055173;28;20461;-77
2023/05/26 08:44:44;;;;;;;19.63;3.97;;;15.90;74.10;;;;;;5073489;28;20021;-77
2023/05/26 08:47:12;;;;;;;20.52;3.53;;;15.80;74.40;;;;;;5055523;28;20033;-78
2023/05/26 08:49:46;;;;;;;20.35;3.75;;;15.90;74.60;;;;;;5072828;28;20103;-76
2023/05/26 08:52:14;;;;;;;20.98;4.38;;;16.10;74.80;;;;;;5055826;28;20028;-77
2023/05/26 08:54:41;;;;;;;19.00;3.88;;;16.30;73.90;;;;;;5055484;28;20366;-76
2023/05/26 08:57:08;;;;;;;25.20;4.80;;;16.40;72.80;;;;;;5055189;28;20036;-75
2023/05/26 08:59:36;;;;;;;19.58;3.80;;;16.40;72.60;;;;;;5073255;28;20064;-74
2023/05/26 09:02:02;;;;;;;23.55;3.30;;;16.50;71.90;;;;;;5073135;28;20028;-75
2023/05/26 09:04:30;;;;;;;21.38;3.85;;;16.60;71.20;;;;;;5038388;28;20028;-75
2023/05/26 09:06:56;;;;;;;18.40;3.85;;;16.50;71.00;;;;;;5072786;28;20056;-74
2023/05/26 09:09:21;;;;;;;17.38;4.03;;;16.50;71.60;;;;;;5073352;28;20040;-74
2023/05/26 09:11:47;;;;;;;17.95;3.22;;;16.60;71.20;;;;;;5062771;28;20056;-73
2023/05/26 09:14:17;;;;;;;18.60;3.38;;;16.60;72.30;;;;;;5058663;28;20055;-77
2023/05/26 09:16:43;;;;;;;23.33;3.47;;;16.70;72.50;;;;;;5075735;28;20374;-76
2023/05/26 09:19:17;;;;;;;17.05;3.30;;;16.80;71.80;;;;;;5074982;28;20096;-76
2023/05/26 09:21:48;;;;;;;13.65;3.13;;;16.90;71.90;;;;;;5093284;28;20028;-78
2023/05/26 09:24:16;;;;;;;19.73;3.47;;;17.20;71.80;;;;;;5075895;28;20060;-76
2023/05/26 09:26:44;;;;;;;14.98;3.60;;;17.40;70.50;;;;;;5093190;28;20139;-77
2023/05/26 09:29:11;;;;;;;21.48;4.00;;;17.40;68.50;;;;;;5093229;28;20027;-76
2023/05/26 09:31:41;;;;;;;18.65;4.13;;;17.50;69.30;;;;;;5058821;28;20130;-76
2023/05/26 09:34:07;;;;;;;21.98;4.05;;;17.60;68.00;;;;;;5075813;28;20085;-76
2023/05/26 09:36:36;;;;;;;21.75;4.60;;;17.60;68.30;;;;;;5058825;28;20128;-76
2023/05/26 09:39:03;;;;;;;16.38;4.00;;;17.60;67.30;;;;;;5058386;28;20370;-76
2023/05/26 09:41:39;;;;;;;16.50;3.50;;;17.70;69.30;;;;;;5075305;28;20028;-77
2023/05/26 09:44:15;;;;;;;20.65;3.92;;;17.60;68.00;;;;;;5093302;28;20028;-75
2023/05/26 09:46:42;;;;;;;16.48;3.05;;;17.80;68.10;;;;;;5092709;28;20411;-76
2023/05/26 09:49:12;;;;;;;18.20;3.83;;;17.90;67.50;;;;;;5093234;28;20035;-79
2023/05/26 09:51:40;;;;;;;17.40;3.92;;;18.10;68.70;;;;;;5074592;28;20032;-77
2023/05/26 09:54:06;;;;;;;23.15;4.53;;;18.30;68.70;;;;;;5092740;28;20226;-77
2023/05/26 09:56:34;;;;;;;20.80;4.20;;;18.40;67.00;;;;;;5074888;28;20028;-77
2023/05/26 09:59:05;;;;;;;14.23;3.17;;;18.30;67.90;;;;;;5095192;28;20105;-77
2023/05/26 10:01:34;;;;;;;13.30;3.30;;;18.40;68.40;;;;;;5096798;28;20039;-76
2023/05/26 10:04:02;;;;;;;16.48;3.30;;;18.50;66.70;;;;;;5096029;28;20027;-76
2023/05/26 10:06:29;;;;;;;20.10;5.13;;;18.60;66.50;;;;;;5078650;28;20039;-77
2023/05/26 10:08:59;;;;;;;22.58;4.45;;;18.50;64.80;;;;;;5096259;28;20112;-78
2023/05/26 10:11:26;;;;;;;14.07;3.13;;;18.30;64.70;;;;;;5096011;28;20044;-77
2023/05/26 10:13:54;;;;;;;19.40;4.35;;;18.30;67.00;;;;;;5077947;28;20035;-77
2023/05/26 10:16:20;;;;;;;16.80;3.75;;;18.30;67.10;;;;;;5096340;28;20036;-75
2023/05/26 10:18:46;;;;;;;20.25;4.60;;;18.50;66.60;;;;;;5095752;28;20032;-75
2023/05/26 10:21:15;;;;;;;17.23;3.65;;;18.60;64.00;;;;;;5095955;28;20388;-78
2023/05/26 10:23:49;;;;;;;20.50;4.65;;;18.70;64.10;;;;;;5096290;28;20016;-77
2023/05/26 10:26:29;;;;;;;19.75;3.60;;;18.70;63.50;;;;;;5096180;28;20020;-77
2023/05/26 10:28:59;;;;;;;14.80;3.20;;;18.80;64.50;;;;;;5095963;28;20043;-78
2023/05/26 10:31:29;;;;;;;16.88;3.70;;;18.90;64.10;;;;;;5078247;28;20461;-78
2023/05/26 10:33:56;;;;;;;11.25;3.03;;;19.00;64.20;;;;;;5077825;28;20028;-77
2023/05/26 10:36:23;;;;;;;17.25;4.15;;;19.10;64.00;;;;;;5095788;28;20032;-79
2023/05/26 10:38:52;;;;;;;14.18;3.03;;;19.30;62.10;;;;;;5077527;28;20460;-79
2023/05/26 10:41:39;;;;;;;15.38;3.50;;;19.20;62.90;;;;;;5095869;28;20028;-79
2023/05/26 10:44:05;;;;;;;14.95;3.40;;;19.10;60.80;;;;;;5078519;28;20031;-76
2023/05/26 10:46:45;;;;;;;16.05;3.10;;;19.20;61.90;;;;;;5096666;28;20024;-78
2023/05/26 10:49:21;;;;;;;14.27;3.15;;;19.30;60.50;;;;;;5096736;28;20039;-75
2023/05/26 10:51:54;;;;;;;15.05;3.17;;;19.40;60.90;;;;;;5077877;28;20320;-78
2023/05/26 10:54:22;;;;;;;;;;;19.70;61.50;;;;;;5095805;28;20034;-78
2023/05/26 10:56:53;;;;;;;15.27;2.78;;;19.90;61.70;;;;;;5095393;28;19907;-78
2023/05/26 10:59:33;;;;;;;10.23;2.33;;;20.10;59.00;;;;;;5077493;28;20116;-79
2023/05/26 11:02:04;;;;;;;15.02;3.53;;;19.90;59.70;;;;;;5095285;28;20039;-78
2023/05/26 11:04:44;;;;;;;14.98;3.03;;;19.90;60.20;;;;;;5077152;28;20028;-78
2023/05/26 11:07:23;;;;;;;16.10;3.58;;;20.10;60.90;;;;;;5077773;28;20165;-78
2023/05/26 11:09:57;;;;;;;15.85;3.38;;;20.20;60.10;;;;;;5095083;28;20036;-78
2023/05/26 11:12:23;;;;;;;14.40;3.13;;;20.20;60.60;;;;;;5076496;28;20044;-78
2023/05/26 11:14:49;;;;;;;14.23;3.03;;;20.40;59.90;;;;;;5060912;28;20464;-77
2023/05/26 11:17:20;;;;;;;15.75;4.07;;;20.60;59.80;;;;;;5094759;28;20043;-78
2023/05/26 11:19:54;;;;;;;15.85;3.00;;;20.70;59.60;;;;;;5077289;28;20035;-78
2023/05/26 11:22:23;;;;;;;13.73;3.15;;;20.70;59.80;;;;;;5094855;28;20495;-77
2023/05/26 11:24:51;;;;;;;15.88;3.17;;;20.90;59.00;;;;;;5095103;28;20032;-78
2023/05/26 11:27:16;;;;;;;17.35;3.63;;;20.80;57.40;;;;;;5060243;28;20040;-78
2023/05/26 11:29:45;;;;;;;13.77;3.45;;;20.90;57.40;;;;;;5094815;28;20022;-78
2023/05/26 11:32:12;;;;;;;15.57;3.53;;;20.80;58.20;;;;;;5094071;28;20115;-78
2023/05/26 11:34:38;;;;;;;14.55;3.78;;;20.80;58.80;;;;;;5059920;28;20075;-78
2023/05/26 11:37:07;;;;;;;16.00;3.05;;;20.80;57.50;;;;;;5059785;28;20492;-78
2023/05/26 11:39:34;;;;;;;12.18;2.92;;;20.70;56.90;;;;;;5076418;28;20077;-78
2023/05/26 11:42:13;;;;;;;13.32;3.25;;;20.80;57.60;;;;;;5076315;28;20044;-78
2023/05/26 11:44:39;;;;;;;13.40;3.03;;;20.90;58.60;;;;;;5094142;28;20471;-78
2023/05/26 11:47:05;;;;;;;14.23;2.90;;;20.80;55.20;;;;;;5076537;28;20016;-78
2023/05/26 11:49:31;;;;;;;11.90;2.72;;;20.80;57.00;;;;;;5076366;28;20036;-78
2023/05/26 11:51:57;;;;;;;12.52;2.95;;;20.80;57.00;;;;;;5094655;28;20055;-78
2023/05/26 11:54:23;;;;;;;11.23;2.55;;;20.80;56.90;;;;;;5075715;28;20425;-78
2023/05/26 11:56:48;;;;;;;14.05;3.03;;;20.80;59.20;;;;;;5076317;28;20039;-79
2023/05/26 11:59:18;;;;;;;17.38;4.00;;;20.90;57.30;;;;;;5093888;28;20032;-78
2023/05/26 12:01:45;;;;;;;14.60;2.88;;;20.70;57.20;;;;;;5076310;28;20024;-78
2023/05/26 12:04:10;;;;;;;17.88;3.78;;;20.70;59.10;;;;;;5075956;28;20042;-78
2023/05/26 12:06:41;;;;;;;15.75;2.55;;;20.90;59.80;;;;;;5075847;28;20411;-78
2023/05/26 12:09:22;;;;;;;12.05;3.17;;;21.00;59.00;;;;;;5094021;28;20039;-78
2023/05/26 12:11:52;;;;;;;15.98;3.28;;;21.00;58.80;;;;;;5093571;28;20113;-79
2023/05/26 12:14:18;;;;;;;14.85;3.90;;;21.10;58.00;;;;;;5059449;28;20036;-78
2023/05/26 12:16:45;;;;;;;19.05;4.63;;;21.20;57.50;;;;;;5076045;28;20386;-79
2023/05/26 12:19:13;;;;;;;13.75;3.60;;;21.20;57.70;;;;;;5093908;28;20020;-79
2023/05/26 12:21:47;;;;;;;15.60;3.28;;;21.20;58.20;;;;;;5092678;28;20052;-79
2023/05/26 12:24:27;;;;;;;13.07;3.05;;;21.10;56.90;;;;;;5075768;28;20024;-78
2023/05/26 12:26:53;;;;;;;10.73;3.00;;;21.20;58.00;;;;;;5093792;28;20074;-79
2023/05/26 12:29:19;;;;;;;14.18;2.88;;;21.20;57.10;;;;;;5058656;28;20059;-79
2023/05/26 12:31:50;;;;;;;12.27;2.80;;;21.20;57.00;;;;;;5075840;28;20085;-79
2023/05/26 12:34:23;;;;;;;12.23;3.08;;;21.40;56.90;;;;;;5093859;28;20054;-78
2023/05/26 12:36:50;;;;;;;12.65;2.90;;;21.70;57.50;;;;;;5093444;28;20086;-79
2023/05/26 12:39:17;;;;;;;13.70;3.10;;;21.80;57.40;;;;;;5093978;28;20474;-78